首页
METAR-TAF:

METAR-TAF

机场 :

達爾文國際機場

达尔文, 澳大利亚

纬度: 12-24S, 经度: 130-52E, 海拔: 31米

当前天气观测

该预报发布于30分钟前的09:30 UTC
风速1节,风向南转南东
温度 28°C
湿度 89%
气压 1009 hPa
能见度10公里或以上
少量云层高于1500英尺
多云层高于24000英尺

METAR: YPDN 050930Z 16001KT 9999 FEW015 BKN240 28/26 Q1009 NOSIG

时间: 19:30 (10:00 UTC)

预报

该预报发布于4小时和52分钟前的05:08 UTC
预报有效从05日的 06点(UTC)到 06日的 12点(UTC)
风速3节,风向多变
能见度10公里或以上
散云层高于2000英尺
从 06日的 0000点(UTC)
风速8节,风向
能见度10公里或以上
散云层高于2500英尺
几率 30% :
短暂存在
从 05日的 08点(UTC)到 05日的 11点(UTC)
风速20节,风向多变,有时为35节阵风
能見度: 1000
多云层高于1000英尺
散云层高于2500英尺, 积雨云.
雷暴, 雨
几率 30% :
短暂存在
从 05日的 15点(UTC)到 05日的 22点(UTC)
风速20节,风向多变,有时为35节阵风
能見度: 1000
多云层高于1000英尺
散云层高于2500英尺, 积雨云.
雷暴, 雨
几率 30% :
短暂存在
从 06日的 04点(UTC)到 06日的 10点(UTC)
风速20节,风向多变,有时为35节阵风
能見度: 1000
多云层高于1000英尺
散云层高于2500英尺, 积雨云.
雷暴, 雨

TAF: YPDN 050508Z 0506/0612 VRB03KT 9999 SCT020 FM060000 09008KT 9999 SCT025 PROB30 TEMPO 0508/0511 VRB20G35KT 1000 TSRA BKN010 SCT025CB PROB30 TEMPO 0515/0522 VRB20G35KT 1000 TSRA BKN010 SCT025CB PROB30 TEMPO 0604/0610 VRB20G35KT 1000 TSRA BKN010 SCT025CB

超过4000个机场的气象观测和天气预报(METAR&TAF报告)。

可查询的气象台以黄色和红色小点在地图上表示。

将鼠标移到小点上方,可查看气象台名称。

然后点击查看天气观测和预报。

如需切换地图:点击带黑十字的绿色按钮放大地图;点击带横线的绿色按钮缩小地图;或者点击绿色箭头查看邻近地区的地图。


METAR-TAF: